»·PEaware :: N352QN 27CA-KSAN

N352QN :: 27CA-KSAN

FLIGHT INFORMATION

Flight Status: Arrived
Operator: Privately registered:
United States
More flights under this callsign
Pilot: Jacob H. (10561)
Aircraft: Unknown
(EPIC)
More flights by this aircraft type
Origin: 27CA Holiday Ranch
United States
Destination: KSAN San Diego Intl-Lindbergh
United States
More flights between these airports :: More routes between these airports
Route: +APLES V442 PDZ V186 TANNR V186 HAILE
File this flight plan on PilotEdge
Remarks:
Altitude:
(Current/Filed)
10,000ft
Speed:
(Current/Filed)
275kts
Departed: 04-Oct-17 05:40 PM
Arrived: 04-Oct-17 06:14 PM
Distance/Time
Traveled:
110nm/0:34
Distance/Time
To Go:
Arrived

Flight Plot

Page will automatically refresh every two minutes.

Flight plan parsing failed; only flown route is shown


Map Options




Map Legend


Flown Route
Filed Route
Departure Airport
Arrival Airport
Navaid (VOR, NDB)
Fix

Horizontal Profiles

Position Reports

Time Latitude Longitude Heading Altitude Ground
Speed
04-Oct-17 17:37 34.557318 -117.080103 354 3227ft 0kts
04-Oct-17 17:38 34.557318 -117.080103 354 3227ft 0kts
04-Oct-17 17:39 34.557318 -117.080103 354 3227ft 0kts
04-Oct-17 17:40 34.557318 -117.080103 354 3227ft 0kts
04-Oct-17 17:41 34.557318 -117.080103 354 3227ft 0kts
04-Oct-17 17:42 34.557318 -117.080103 354 3227ft 0kts
04-Oct-17 17:43 34.557318 -117.080103 353 3227ft 0kts
04-Oct-17 17:44 34.563448 -117.080934 354 3329ft 129kts
04-Oct-17 17:45 34.590160 -117.107600 262 7268ft 165kts
04-Oct-17 17:46 34.543289 -117.146254 183 8658ft 268kts
04-Oct-17 17:47 34.477586 -117.190119 209 9937ft 303kts
04-Oct-17 17:48 34.400833 -117.239054 207 9991ft 310kts
04-Oct-17 17:49 34.324198 -117.285725 206 10102ft 311kts
04-Oct-17 17:50 34.248482 -117.331541 206 10102ft 312kts
04-Oct-17 17:51 34.174150 -117.376202 208 10079ft 317kts
04-Oct-17 17:52 34.095367 -117.423785 209 9996ft 317kts
04-Oct-17 17:53 34.018369 -117.470164 208 9992ft 307kts
04-Oct-17 17:54 33.944179 -117.514326 201 9981ft 299kts
04-Oct-17 17:55 33.868560 -117.484767 151 9994ft 304kts
04-Oct-17 17:56 33.798001 -117.428821 148 9994ft 305kts
04-Oct-17 17:57 33.727964 -117.370568 147 9995ft 308kts
04-Oct-17 17:58 33.661852 -117.315472 147 9994ft 308kts
04-Oct-17 17:59 33.591587 -117.256967 147 9997ft 308kts
04-Oct-17 18:00 33.521390 -117.198623 147 10021ft 307kts
04-Oct-17 18:01 33.445594 -117.156652 170 10022ft 303kts
04-Oct-17 18:02 33.363091 -117.137573 171 10021ft 303kts
04-Oct-17 18:03 33.280238 -117.119850 172 9998ft 303kts
04-Oct-17 18:04 33.197252 -117.102288 172 9993ft 303kts
04-Oct-17 18:05 33.114836 -117.083761 160 9972ft 306kts
04-Oct-17 18:06 33.043736 -117.033216 151 9834ft 283kts
04-Oct-17 18:07 32.978370 -116.986842 151 8222ft 277kts
04-Oct-17 18:08 32.911226 -116.941042 151 6622ft 270kts
04-Oct-17 18:09 32.850558 -116.899661 149 5067ft 240kts
04-Oct-17 18:10 32.791187 -116.898161 191 4993ft 215kts
04-Oct-17 18:11 32.734444 -116.912750 206 4864ft 209kts
04-Oct-17 18:12 32.698698 -116.963859 252 4473ft 203kts
04-Oct-17 18:13 32.693081 -117.029249 282 3940ft 202kts
04-Oct-17 18:14 32.708877 -117.086386 287 2415ft 152kts
04-Oct-17 18:15 32.717995 -117.126424 287 969ft 103kts
04-Oct-17 18:16 32.725808 -117.158099 288 515ft 101kts
04-Oct-17 18:17 32.733117 -117.187733 286 17ft 55kts
04-Oct-17 18:18 32.734834 -117.190530 64 17ft 10kts
04-Oct-17 18:19 32.732847 -117.181806 104 16ft 34kts
04-Oct-17 18:20 32.732968 -117.179247 138 20ft 0kts
04-Oct-17 18:21 32.732968 -117.179247 138 20ft 0kts
04-Oct-17 18:22 32.732968 -117.179247 138 20ft 0kts
04-Oct-17 18:23 32.732968 -117.179247 138 20ft 0kts
04-Oct-17 18:24 32.732968 -117.179247 138 20ft 0kts
04-Oct-17 18:25 32.732968 -117.179247 138 20ft 0kts
04-Oct-17 18:26 32.732968 -117.179247 138 20ft 0kts
04-Oct-17 18:27 32.732968 -117.179247 138 20ft 0kts
04-Oct-17 18:28 32.732968 -117.179247 138 20ft 0kts
04-Oct-17 18:29 32.732968 -117.179247 138 20ft 0kts
04-Oct-17 18:30 32.732968 -117.179247 138 20ft 0kts
04-Oct-17 18:31 32.732968 -117.179247 138 20ft 0kts
04-Oct-17 18:32 32.732968 -117.179247 138 20ft 0kts

Navigation Log

Ident Type
Flight plan parsing failed, navigation log unavailable